<?xml version="1.0" encoding="UTF-8" standalone="no" ?>
<gpx xmlns="http://www.topografix.com/GPX/1/1" xmlns:xsi="http://www.w3.org/2001/XMLSchema-instance" xsi:schemaLocation="http://www.topografix.com/GPX/1/1 http://www.topografix.com/GPX/1/1/gpx.xsd" version="1.1" creator="VisuGPX - https://www.visugpx.com">
  <metadata>
    <name>Du Barry Montpeyroux à Maison forestière du Plot</name>
  </metadata>
  <wpt lat="43.70312" lon="3.50702">
    <ele>159</ele>
    <name><![CDATA[]]></name>
    <type><![CDATA[GENERIC]]></type>
  </wpt>
  <wpt lat="43.70222" lon="3.50771">
    <ele>151</ele>
    <name><![CDATA[]]></name>
    <type><![CDATA[GENERIC]]></type>
  </wpt>
  <trk>
    <name><![CDATA[Du Barry Montpeyroux à Maison forestière du Plot]]></name>
    <trkseg>
      <trkpt lat="43.70222" lon="3.50771">
        <ele>151</ele>
        <time>2025-03-12T16:10:32.000Z</time>
      </trkpt>
      <trkpt lat="43.70283" lon="3.50752">
        <ele>156</ele>
        <time>2025-03-12T16:12:36.000Z</time>
      </trkpt>
      <trkpt lat="43.70345" lon="3.50781">
        <ele>161</ele>
        <time>2025-03-12T16:14:42.000Z</time>
      </trkpt>
      <trkpt lat="43.70314" lon="3.5088">
        <ele>156</ele>
        <time>2025-03-12T16:16:11.000Z</time>
      </trkpt>
      <trkpt lat="43.70314" lon="3.50989">
        <ele>159</ele>
        <time>2025-03-12T16:18:12.000Z</time>
      </trkpt>
      <trkpt lat="43.70362" lon="3.51131">
        <ele>171</ele>
        <time>2025-03-12T16:22:25.000Z</time>
      </trkpt>
      <trkpt lat="43.70335" lon="3.51287">
        <ele>162</ele>
        <time>2025-03-12T16:24:38.000Z</time>
      </trkpt>
      <trkpt lat="43.70301" lon="3.51433">
        <ele>153</ele>
        <time>2025-03-12T16:26:46.000Z</time>
      </trkpt>
      <trkpt lat="43.70239" lon="3.51499">
        <ele>147</ele>
        <time>2025-03-12T16:28:15.000Z</time>
      </trkpt>
      <trkpt lat="43.70109" lon="3.51532">
        <ele>137</ele>
        <time>2025-03-12T16:30:46.000Z</time>
      </trkpt>
      <trkpt lat="43.70034" lon="3.51547">
        <ele>133</ele>
        <time>2025-03-12T16:32:13.000Z</time>
      </trkpt>
      <trkpt lat="43.69949" lon="3.51542">
        <ele>128</ele>
        <time>2025-03-12T16:33:51.000Z</time>
      </trkpt>
      <trkpt lat="43.69945" lon="3.51665">
        <ele>125</ele>
        <time>2025-03-12T16:35:33.000Z</time>
      </trkpt>
      <trkpt lat="43.69935" lon="3.51802">
        <ele>125</ele>
        <time>2025-03-12T16:37:27.000Z</time>
      </trkpt>
      <trkpt lat="43.69993" lon="3.51901">
        <ele>129</ele>
        <time>2025-03-12T16:39:54.000Z</time>
      </trkpt>
      <trkpt lat="43.70013" lon="3.52027">
        <ele>127</ele>
        <time>2025-03-12T16:41:41.000Z</time>
      </trkpt>
      <trkpt lat="43.70031" lon="3.52136">
        <ele>127</ele>
        <time>2025-03-12T16:43:13.000Z</time>
      </trkpt>
      <trkpt lat="43.69979" lon="3.52207">
        <ele>129</ele>
        <time>2025-03-12T16:44:57.000Z</time>
      </trkpt>
      <trkpt lat="43.69931" lon="3.52288">
        <ele>134</ele>
        <time>2025-03-12T16:47:15.000Z</time>
      </trkpt>
      <trkpt lat="43.69935" lon="3.52415">
        <ele>137</ele>
        <time>2025-03-12T16:49:32.000Z</time>
      </trkpt>
      <trkpt lat="43.69928" lon="3.52544">
        <ele>137</ele>
        <time>2025-03-12T16:51:19.000Z</time>
      </trkpt>
      <trkpt lat="43.69925" lon="3.52629">
        <ele>140</ele>
        <time>2025-03-12T16:53:00.000Z</time>
      </trkpt>
      <trkpt lat="43.69979" lon="3.52705">
        <ele>136</ele>
        <time>2025-03-12T16:54:29.000Z</time>
      </trkpt>
      <trkpt lat="43.69966" lon="3.5279">
        <ele>125</ele>
        <time>2025-03-12T16:55:41.000Z</time>
      </trkpt>
      <trkpt lat="43.7002" lon="3.52828">
        <ele>129</ele>
        <time>2025-03-12T16:57:32.000Z</time>
      </trkpt>
      <trkpt lat="43.70044" lon="3.52903">
        <ele>131</ele>
        <time>2025-03-12T16:59:01.000Z</time>
      </trkpt>
      <trkpt lat="43.70106" lon="3.52969">
        <ele>143</ele>
        <time>2025-03-12T17:02:34.000Z</time>
      </trkpt>
      <trkpt lat="43.70065" lon="3.53074">
        <ele>148</ele>
        <time>2025-03-12T17:05:04.000Z</time>
      </trkpt>
      <trkpt lat="43.70041" lon="3.53282">
        <ele>143</ele>
        <time>2025-03-12T17:07:58.000Z</time>
      </trkpt>
      <trkpt lat="43.70054" lon="3.53433">
        <ele>145</ele>
        <time>2025-03-12T17:10:25.000Z</time>
      </trkpt>
      <trkpt lat="43.70072" lon="3.53598">
        <ele>141</ele>
        <time>2025-03-12T17:12:43.000Z</time>
      </trkpt>
      <trkpt lat="43.70116" lon="3.5374">
        <ele>136</ele>
        <time>2025-03-12T17:14:51.000Z</time>
      </trkpt>
      <trkpt lat="43.70143" lon="3.53915">
        <ele>133</ele>
        <time>2025-03-12T17:17:19.000Z</time>
      </trkpt>
      <trkpt lat="43.70147" lon="3.54075">
        <ele>131</ele>
        <time>2025-03-12T17:19:32.000Z</time>
      </trkpt>
      <trkpt lat="43.70154" lon="3.54227">
        <ele>131</ele>
        <time>2025-03-12T17:21:37.000Z</time>
      </trkpt>
      <trkpt lat="43.70234" lon="3.54247">
        <ele>137</ele>
        <time>2025-03-12T17:24:12.000Z</time>
      </trkpt>
      <trkpt lat="43.70343" lon="3.54228">
        <ele>154</ele>
        <time>2025-03-12T17:29:13.000Z</time>
      </trkpt>
      <trkpt lat="43.70452" lon="3.54256">
        <ele>167</ele>
        <time>2025-03-12T17:33:34.000Z</time>
      </trkpt>
      <trkpt lat="43.70575" lon="3.54266">
        <ele>195</ele>
        <time>2025-03-12T17:40:43.000Z</time>
      </trkpt>
      <trkpt lat="43.70674" lon="3.54242">
        <ele>207</ele>
        <time>2025-03-12T17:44:42.000Z</time>
      </trkpt>
      <trkpt lat="43.70777" lon="3.54176">
        <ele>221</ele>
        <time>2025-03-12T17:49:16.000Z</time>
      </trkpt>
      <trkpt lat="43.70838" lon="3.54053">
        <ele>244</ele>
        <time>2025-03-12T17:55:16.000Z</time>
      </trkpt>
      <trkpt lat="43.7091" lon="3.5401">
        <ele>260</ele>
        <time>2025-03-12T17:59:30.000Z</time>
      </trkpt>
      <trkpt lat="43.71033" lon="3.53977">
        <ele>271</ele>
        <time>2025-03-12T18:03:47.000Z</time>
      </trkpt>
      <trkpt lat="43.71139" lon="3.53925">
        <ele>293</ele>
        <time>2025-03-12T18:09:42.000Z</time>
      </trkpt>
      <trkpt lat="43.71218" lon="3.53835">
        <ele>320</ele>
        <time>2025-03-12T18:16:16.000Z</time>
      </trkpt>
      <trkpt lat="43.71283" lon="3.5376">
        <ele>329</ele>
        <time>2025-03-12T18:19:26.000Z</time>
      </trkpt>
      <trkpt lat="43.71426" lon="3.53755">
        <ele>341</ele>
        <time>2025-03-12T18:24:14.000Z</time>
      </trkpt>
      <trkpt lat="43.71583" lon="3.53755">
        <ele>348</ele>
        <time>2025-03-12T18:28:26.000Z</time>
      </trkpt>
      <trkpt lat="43.71717" lon="3.53769">
        <ele>349</ele>
        <time>2025-03-12T18:31:09.000Z</time>
      </trkpt>
      <trkpt lat="43.7185" lon="3.53746">
        <ele>347</ele>
        <time>2025-03-12T18:33:43.000Z</time>
      </trkpt>
      <trkpt lat="43.71935" lon="3.53722">
        <ele>348</ele>
        <time>2025-03-12T18:35:33.000Z</time>
      </trkpt>
      <trkpt lat="43.72065" lon="3.53694">
        <ele>347</ele>
        <time>2025-03-12T18:38:03.000Z</time>
      </trkpt>
      <trkpt lat="43.72127" lon="3.5366">
        <ele>348</ele>
        <time>2025-03-12T18:39:29.000Z</time>
      </trkpt>
      <trkpt lat="43.7218" lon="3.53526">
        <ele>351</ele>
        <time>2025-03-12T18:42:06.000Z</time>
      </trkpt>
      <trkpt lat="43.72252" lon="3.53427">
        <ele>361</ele>
        <time>2025-03-12T18:45:45.000Z</time>
      </trkpt>
      <trkpt lat="43.72231" lon="3.53266">
        <ele>369</ele>
        <time>2025-03-12T18:49:22.000Z</time>
      </trkpt>
      <trkpt lat="43.7232" lon="3.53347">
        <ele>377</ele>
        <time>2025-03-12T18:52:46.000Z</time>
      </trkpt>
      <trkpt lat="43.72406" lon="3.53318">
        <ele>382</ele>
        <time>2025-03-12T18:55:18.000Z</time>
      </trkpt>
      <trkpt lat="43.72337" lon="3.53195">
        <ele>395</ele>
        <time>2025-03-12T18:59:40.000Z</time>
      </trkpt>
      <trkpt lat="43.72337" lon="3.53049">
        <ele>403</ele>
        <time>2025-03-12T19:03:04.000Z</time>
      </trkpt>
      <trkpt lat="43.72402" lon="3.52959">
        <ele>412</ele>
        <time>2025-03-12T19:06:22.000Z</time>
      </trkpt>
      <trkpt lat="43.72412" lon="3.53096">
        <ele>417</ele>
        <time>2025-03-12T19:09:08.000Z</time>
      </trkpt>
      <trkpt lat="43.7245" lon="3.53016">
        <ele>429</ele>
        <time>2025-03-12T19:12:31.000Z</time>
      </trkpt>
      <trkpt lat="43.72484" lon="3.5294">
        <ele>438</ele>
        <time>2025-03-12T19:15:17.000Z</time>
      </trkpt>
      <trkpt lat="43.72525" lon="3.52898">
        <ele>452</ele>
        <time>2025-03-12T19:18:40.000Z</time>
      </trkpt>
      <trkpt lat="43.72546" lon="3.52789">
        <ele>456</ele>
        <time>2025-03-12T19:20:54.000Z</time>
      </trkpt>
      <trkpt lat="43.72563" lon="3.52671">
        <ele>470</ele>
        <time>2025-03-12T19:24:58.000Z</time>
      </trkpt>
      <trkpt lat="43.72638" lon="3.52562">
        <ele>483</ele>
        <time>2025-03-12T19:29:16.000Z</time>
      </trkpt>
      <trkpt lat="43.72703" lon="3.52467">
        <ele>496</ele>
        <time>2025-03-12T19:33:18.000Z</time>
      </trkpt>
      <trkpt lat="43.72788" lon="3.52373">
        <ele>489</ele>
        <time>2025-03-12T19:35:23.000Z</time>
      </trkpt>
      <trkpt lat="43.7287" lon="3.5224">
        <ele>491</ele>
        <time>2025-03-12T19:38:08.000Z</time>
      </trkpt>
      <trkpt lat="43.72935" lon="3.5217">
        <ele>507</ele>
        <time>2025-03-12T19:42:27.000Z</time>
      </trkpt>
      <trkpt lat="43.72929" lon="3.52078">
        <ele>523</ele>
        <time>2025-03-12T19:46:27.000Z</time>
      </trkpt>
      <trkpt lat="43.72875" lon="3.52031">
        <ele>523</ele>
        <time>2025-03-12T19:47:41.000Z</time>
      </trkpt>
      <trkpt lat="43.72803" lon="3.51969">
        <ele>531</ele>
        <time>2025-03-12T19:50:40.000Z</time>
      </trkpt>
      <trkpt lat="43.72748" lon="3.51894">
        <ele>524</ele>
        <time>2025-03-12T19:52:09.000Z</time>
      </trkpt>
      <trkpt lat="43.72666" lon="3.51908">
        <ele>521</ele>
        <time>2025-03-12T19:53:44.000Z</time>
      </trkpt>
      <trkpt lat="43.72615" lon="3.51951">
        <ele>519</ele>
        <time>2025-03-12T19:54:52.000Z</time>
      </trkpt>
      <trkpt lat="43.72509" lon="3.51917">
        <ele>505</ele>
        <time>2025-03-12T19:56:56.000Z</time>
      </trkpt>
      <trkpt lat="43.72437" lon="3.51832">
        <ele>497</ele>
        <time>2025-03-12T19:58:44.000Z</time>
      </trkpt>
      <trkpt lat="43.72482" lon="3.51738">
        <ele>494</ele>
        <time>2025-03-12T20:00:17.000Z</time>
      </trkpt>
      <trkpt lat="43.7253" lon="3.51596">
        <ele>495</ele>
        <time>2025-03-12T20:02:37.000Z</time>
      </trkpt>
      <trkpt lat="43.72448" lon="3.51544">
        <ele>494</ele>
        <time>2025-03-12T20:04:20.000Z</time>
      </trkpt>
      <trkpt lat="43.72349" lon="3.51535">
        <ele>496</ele>
        <time>2025-03-12T20:06:34.000Z</time>
      </trkpt>
      <trkpt lat="43.72325" lon="3.5144">
        <ele>488</ele>
        <time>2025-03-12T20:07:57.000Z</time>
      </trkpt>
      <trkpt lat="43.72287" lon="3.51341">
        <ele>482</ele>
        <time>2025-03-12T20:09:30.000Z</time>
      </trkpt>
      <trkpt lat="43.72181" lon="3.51293">
        <ele>463</ele>
        <time>2025-03-12T20:11:37.000Z</time>
      </trkpt>
      <trkpt lat="43.72075" lon="3.51274">
        <ele>448</ele>
        <time>2025-03-12T20:13:39.000Z</time>
      </trkpt>
      <trkpt lat="43.71966" lon="3.5135">
        <ele>433</ele>
        <time>2025-03-12T20:15:59.000Z</time>
      </trkpt>
      <trkpt lat="43.71839" lon="3.51412">
        <ele>425</ele>
        <time>2025-03-12T20:18:32.000Z</time>
      </trkpt>
      <trkpt lat="43.71768" lon="3.51483">
        <ele>427</ele>
        <time>2025-03-12T20:20:34.000Z</time>
      </trkpt>
      <trkpt lat="43.71689" lon="3.51454">
        <ele>429</ele>
        <time>2025-03-12T20:22:28.000Z</time>
      </trkpt>
      <trkpt lat="43.71662" lon="3.51322">
        <ele>440</ele>
        <time>2025-03-12T20:26:15.000Z</time>
      </trkpt>
      <trkpt lat="43.71573" lon="3.51322">
        <ele>444</ele>
        <time>2025-03-12T20:28:38.000Z</time>
      </trkpt>
      <trkpt lat="43.71484" lon="3.51284">
        <ele>439</ele>
        <time>2025-03-12T20:30:24.000Z</time>
      </trkpt>
      <trkpt lat="43.71406" lon="3.51208">
        <ele>422</ele>
        <time>2025-03-12T20:32:14.000Z</time>
      </trkpt>
      <trkpt lat="43.7131" lon="3.51189">
        <ele>403</ele>
        <time>2025-03-12T20:34:05.000Z</time>
      </trkpt>
      <trkpt lat="43.71241" lon="3.51114">
        <ele>382</ele>
        <time>2025-03-12T20:35:45.000Z</time>
      </trkpt>
      <trkpt lat="43.71207" lon="3.51222">
        <ele>378</ele>
        <time>2025-03-12T20:37:23.000Z</time>
      </trkpt>
      <trkpt lat="43.71218" lon="3.5135">
        <ele>375</ele>
        <time>2025-03-12T20:39:09.000Z</time>
      </trkpt>
      <trkpt lat="43.71118" lon="3.51147">
        <ele>362</ele>
        <time>2025-03-12T20:42:32.000Z</time>
      </trkpt>
      <trkpt lat="43.71084" lon="3.5101">
        <ele>349</ele>
        <time>2025-03-12T20:44:32.000Z</time>
      </trkpt>
      <trkpt lat="43.7106" lon="3.50887">
        <ele>337</ele>
        <time>2025-03-12T20:46:17.000Z</time>
      </trkpt>
      <trkpt lat="43.71064" lon="3.50787">
        <ele>325</ele>
        <time>2025-03-12T20:47:39.000Z</time>
      </trkpt>
      <trkpt lat="43.70995" lon="3.50683">
        <ele>327</ele>
        <time>2025-03-12T20:49:56.000Z</time>
      </trkpt>
      <trkpt lat="43.70954" lon="3.50839">
        <ele>319</ele>
        <time>2025-03-12T20:52:13.000Z</time>
      </trkpt>
      <trkpt lat="43.70903" lon="3.5092">
        <ele>304</ele>
        <time>2025-03-12T20:53:42.000Z</time>
      </trkpt>
      <trkpt lat="43.70866" lon="3.50981">
        <ele>308</ele>
        <time>2025-03-12T20:55:30.000Z</time>
      </trkpt>
      <trkpt lat="43.70787" lon="3.50996">
        <ele>289</ele>
        <time>2025-03-12T20:57:01.000Z</time>
      </trkpt>
      <trkpt lat="43.70729" lon="3.51038">
        <ele>272</ele>
        <time>2025-03-12T20:58:16.000Z</time>
      </trkpt>
      <trkpt lat="43.70674" lon="3.51114">
        <ele>246</ele>
        <time>2025-03-12T20:59:45.000Z</time>
      </trkpt>
      <trkpt lat="43.70606" lon="3.51109">
        <ele>241</ele>
        <time>2025-03-12T21:01:03.000Z</time>
      </trkpt>
      <trkpt lat="43.70544" lon="3.51109">
        <ele>235</ele>
        <time>2025-03-12T21:02:13.000Z</time>
      </trkpt>
      <trkpt lat="43.70613" lon="3.51199">
        <ele>229</ele>
        <time>2025-03-12T21:04:01.000Z</time>
      </trkpt>
      <trkpt lat="43.70555" lon="3.5126">
        <ele>215</ele>
        <time>2025-03-12T21:05:25.000Z</time>
      </trkpt>
      <trkpt lat="43.70496" lon="3.51213">
        <ele>209</ele>
        <time>2025-03-12T21:06:42.000Z</time>
      </trkpt>
      <trkpt lat="43.70449" lon="3.51114">
        <ele>196</ele>
        <time>2025-03-12T21:08:21.000Z</time>
      </trkpt>
      <trkpt lat="43.70445" lon="3.50991">
        <ele>193</ele>
        <time>2025-03-12T21:10:03.000Z</time>
      </trkpt>
      <trkpt lat="43.70442" lon="3.50868">
        <ele>181</ele>
        <time>2025-03-12T21:11:45.000Z</time>
      </trkpt>
      <trkpt lat="43.70404" lon="3.50769">
        <ele>167</ele>
        <time>2025-03-12T21:13:18.000Z</time>
      </trkpt>
      <trkpt lat="43.7036" lon="3.50702">
        <ele>162</ele>
        <time>2025-03-12T21:14:33.000Z</time>
      </trkpt>
      <trkpt lat="43.70312" lon="3.50702">
        <ele>159</ele>
        <time>2025-03-12T21:15:28.000Z</time>
      </trkpt>
    </trkseg>
  </trk>
</gpx>